Time;durP1;ratioP1;P1;durP2;ratioP2;P2;SDS_P1;SDS_P2;PMS_P1;PMS_P2;Temp;Humidity;BMP_temperature;BMP_pressure;BME280_temperature;BME280_humidity;BME280_pressure;Samples;Min_cycle;Max_cycle;Signal;HPM_P1;HPM_P2
2021/12/15 00:00:09;;;;;;;5.07;4.03;;;21.10;44.50;;;;;;5034549;28;20386;-71
2021/12/15 00:02:35;;;;;;;5.65;4.30;;;21.20;44.50;;;;;;5034514;28;20033;-72
2021/12/15 00:05:01;;;;;;;4.43;3.92;;;21.10;44.50;;;;;;5045251;28;20083;-72
2021/12/15 00:07:28;;;;;;;6.93;4.45;;;21.10;44.50;;;;;;5035720;28;20029;-72
2021/12/15 00:09:54;;;;;;;5.53;4.50;;;21.10;44.50;;;;;;5035974;28;20029;-71
2021/12/15 00:12:20;;;;;;;5.53;4.20;;;21.20;44.50;;;;;;5035449;28;20025;-71
2021/12/15 00:14:46;;;;;;;6.10;4.20;;;21.20;44.50;;;;;;5035453;28;20037;-71
2021/12/15 00:17:12;;;;;;;5.82;4.75;;;21.20;44.50;;;;;;5036708;28;20021;-71
2021/12/15 00:19:38;;;;;;;5.80;4.40;;;21.20;44.50;;;;;;5054301;28;20027;-71
2021/12/15 00:22:04;;;;;;;4.28;3.67;;;21.20;44.50;;;;;;5055372;28;20032;-71
2021/12/15 00:24:30;;;;;;;4.97;4.18;;;21.20;44.50;;;;;;5052745;28;20025;-71
2021/12/15 00:26:56;;;;;;;5.80;4.45;;;21.20;44.60;;;;;;5055223;28;20057;-71
2021/12/15 00:29:23;;;;;;;5.57;4.40;;;21.20;44.60;;;;;;5055246;28;20152;-71
2021/12/15 00:31:50;;;;;;;5.40;4.28;;;21.20;44.60;;;;;;5038187;28;20032;-71
2021/12/15 00:34:17;;;;;;;5.40;4.25;;;21.10;44.50;;;;;;5035209;28;20021;-71
2021/12/15 00:36:44;;;;;;;4.90;4.05;;;21.20;44.50;;;;;;5034970;28;20037;-71
2021/12/15 00:39:12;;;;;;;6.20;4.65;;;21.20;44.50;;;;;;5034776;28;20418;-71
2021/12/15 00:41:39;;;;;;;5.35;4.53;;;21.20;44.60;;;;;;5033888;28;20445;-71
2021/12/15 00:44:05;;;;;;;5.25;4.35;;;21.10;44.50;;;;;;5034811;28;20109;-71
2021/12/15 00:46:31;;;;;;;4.40;3.78;;;21.10;44.50;;;;;;5034674;28;20030;-71
2021/12/15 00:48:58;;;;;;;5.05;4.00;;;21.10;44.50;;;;;;5033508;28;20030;-71
2021/12/15 00:51:24;;;;;;;5.65;4.30;;;21.20;44.60;;;;;;5033109;28;20061;-71
2021/12/15 00:53:50;;;;;;;4.65;3.92;;;21.20;44.50;;;;;;5034664;28;20432;-71
2021/12/15 00:56:16;;;;;;;5.13;4.05;;;21.20;44.60;;;;;;5034731;28;20100;-71
2021/12/15 00:58:42;;;;;;;5.30;4.22;;;21.20;44.50;;;;;;5034547;28;20018;-71
2021/12/15 01:01:08;;;;;;;4.18;3.75;;;21.20;44.50;;;;;;5033328;28;20171;-71
2021/12/15 01:03:34;;;;;;;5.30;4.43;;;21.20;44.50;;;;;;5040548;28;20024;-71
2021/12/15 01:06:07;;;;;;;5.60;4.45;;;21.20;44.50;;;;;;5036598;28;20033;-72
2021/12/15 01:08:38;;;;;;;5.60;3.83;;;21.10;44.50;;;;;;5033252;28;20022;-71
2021/12/15 01:11:13;;;;;;;5.13;4.00;;;21.10;44.50;;;;;;5033153;28;20488;-71
2021/12/15 01:21:59;;;;;;;5.05;4.20;;;21.10;44.60;;;;;;5054513;28;20036;-71
2021/12/15 01:24:25;;;;;;;6.35;4.38;;;21.10;44.70;;;;;;5052629;28;20025;-71
2021/12/15 01:26:51;;;;;;;5.00;4.00;;;21.10;44.70;;;;;;5054144;28;20064;-71
2021/12/15 01:29:17;;;;;;;4.55;3.88;;;21.10;44.60;;;;;;5053802;28;20052;-71
2021/12/15 01:31:42;;;;;;;5.40;4.38;;;21.10;44.60;;;;;;5038022;28;20367;-71
2021/12/15 01:34:08;;;;;;;4.50;3.70;;;21.10;44.60;;;;;;5033580;28;20040;-71
2021/12/15 01:36:34;;;;;;;5.10;4.28;;;21.10;44.50;;;;;;5032204;28;20025;-71
2021/12/15 01:38:59;;;;;;;4.85;3.97;;;21.10;44.50;;;;;;5033795;28;20151;-71
2021/12/15 01:41:26;;;;;;;5.40;4.15;;;21.10;44.50;;;;;;5033937;28;20026;-71
2021/12/15 01:46:56;;;;;;;5.47;4.20;;;21.10;44.50;;;;;;5034240;28;20242;-71
2021/12/15 01:49:39;;;;;;;4.20;3.80;;;21.10;44.50;;;;;;5032311;28;20477;-71
2021/12/15 01:52:18;;;;;;;4.95;3.97;;;21.10;44.60;;;;;;5032039;28;20083;-72
2021/12/15 01:54:48;;;;;;;4.88;3.85;;;21.10;44.60;;;;;;5033507;28;20141;-71
2021/12/15 01:57:17;;;;;;;4.75;3.80;;;21.10;44.70;;;;;;5033864;28;20492;-71
2021/12/15 01:59:46;;;;;;;4.32;3.92;;;21.10;44.60;;;;;;5032131;28;20024;-71
2021/12/15 02:02:13;;;;;;;5.10;3.78;;;21.10;44.70;;;;;;5033357;28;20103;-71
2021/12/15 02:04:39;;;;;;;5.88;4.30;;;21.10;44.60;;;;;;5043256;28;20100;-71
2021/12/15 02:07:08;;;;;;;4.57;3.88;;;21.10;44.70;;;;;;5043916;28;20524;-71
2021/12/15 02:10:01;;;;;;;4.90;4.03;;;21.10;44.60;;;;;;5053009;28;20025;-71
2021/12/15 02:12:40;;;;;;;5.25;4.30;;;21.20;44.70;;;;;;5052987;28;20033;-71
2021/12/15 02:15:28;;;;;;;5.40;4.10;;;21.10;44.70;;;;;;5053160;28;20100;-71
2021/12/15 02:17:54;;;;;;;4.47;3.80;;;21.10;44.60;;;;;;5045957;28;20108;-71
2021/12/15 02:20:37;;;;;;;5.00;3.97;;;21.10;44.70;;;;;;5031710;28;20021;-71
2021/12/15 02:23:05;;;;;;;4.60;3.85;;;21.10;44.70;;;;;;5033340;28;20082;-71
2021/12/15 02:25:31;;;;;;;4.70;3.90;;;21.10;44.70;;;;;;5033115;28;20453;-71
2021/12/15 02:27:59;;;;;;;4.82;3.95;;;21.10;44.70;;;;;;5033220;28;20529;-72
2021/12/15 02:30:44;;;;;;;4.35;3.70;;;21.10;44.70;;;;;;5033383;28;20078;-71
2021/12/15 02:38:39;;;;;;;4.68;3.80;;;21.10;44.70;;;;;;5033475;28;20517;-71
2021/12/15 02:41:13;;;;;;;4.13;3.72;;;21.10;44.70;;;;;;5033026;28;20033;-71
2021/12/15 02:43:39;;;;;;;4.20;3.45;;;21.10;44.70;;;;;;5033150;28;20497;-71
2021/12/15 02:46:06;;;;;;;5.25;3.83;;;21.10;44.70;;;;;;5032939;28;20029;-71
2021/12/15 02:48:31;;;;;;;4.50;3.67;;;21.10;44.70;;;;;;5034941;28;20057;-71
2021/12/15 02:50:58;;;;;;;4.45;3.63;;;21.10;44.70;;;;;;5036764;28;20493;-71
2021/12/15 02:53:24;;;;;;;4.82;4.03;;;21.10;44.70;;;;;;5036849;28;20025;-71
2021/12/15 02:55:50;;;;;;;5.63;4.30;;;21.10;44.70;;;;;;5037042;28;20527;-71
2021/12/15 02:58:18;;;;;;;4.82;3.90;;;21.10;44.80;;;;;;5036718;28;20019;-71
2021/12/15 03:00:54;;;;;;;4.82;3.53;;;21.10;44.70;;;;;;5035614;28;20108;-72
2021/12/15 03:03:57;;;;;;;4.70;3.83;;;21.10;44.70;;;;;;5042279;28;20017;-71
2021/12/15 03:06:21;;;;;;;5.13;4.00;;;21.00;45.60;;;;;;5039827;28;20052;-71
2021/12/15 03:09:01;;;;;;;4.78;3.63;;;21.10;44.80;;;;;;5056644;28;20021;-71
2021/12/15 03:16:57;;;;;;;4.22;3.67;;;21.10;45.70;;;;;;5056536;28;20032;-71
2021/12/15 03:19:24;;;;;;;4.47;3.60;;;21.00;44.70;;;;;;5036969;28;20021;-71
2021/12/15 03:21:50;;;;;;;4.60;3.78;;;21.10;44.80;;;;;;5036301;28;20021;-71
2021/12/15 03:24:20;;;;;;;4.60;3.78;;;21.10;44.70;;;;;;5036394;28;20025;-71
2021/12/15 03:26:59;;;;;;;4.72;3.70;;;21.10;45.70;;;;;;5036170;28;20025;-71
2021/12/15 03:35:05;;;;;;;4.65;3.72;;;21.10;44.80;;;;;;5035997;28;20564;-71
2021/12/15 03:37:36;;;;;;;4.68;3.90;;;21.10;44.80;;;;;;5035081;28;20693;-71
2021/12/15 03:40:14;;;;;;;4.22;3.60;;;21.00;44.70;;;;;;5036270;28;20018;-71
2021/12/15 03:42:47;;;;;;;4.78;3.60;;;21.10;44.70;;;;;;5036074;28;20450;-72
2021/12/15 03:45:17;;;;;;;4.72;3.55;;;21.10;44.80;;;;;;5035943;28;20109;-71
2021/12/15 03:47:45;;;;;;;3.83;3.33;;;21.00;44.70;;;;;;5035858;28;20035;-72
2021/12/15 03:50:13;;;;;;;4.10;3.33;;;21.00;44.70;;;;;;5035484;28;20090;-71
2021/12/15 03:52:39;;;;;;;4.43;3.58;;;21.10;44.80;;;;;;5035486;28;20025;-71
2021/12/15 03:55:07;;;;;;;4.20;3.33;;;21.00;44.70;;;;;;5035465;28;20041;-71
2021/12/15 03:57:33;;;;;;;5.55;3.88;;;21.10;44.80;;;;;;5035880;28;20509;-71
2021/12/15 03:59:59;;;;;;;4.38;3.55;;;21.00;44.70;;;;;;5035504;28;20021;-71
2021/12/15 04:02:25;;;;;;;5.00;3.90;;;21.10;44.70;;;;;;5035697;28;20029;-71
2021/12/15 04:04:52;;;;;;;5.38;4.13;;;21.00;44.70;;;;;;5044833;28;20053;-71
2021/12/15 04:07:21;;;;;;;3.95;3.50;;;21.10;44.80;;;;;;5035344;28;20444;-71
2021/12/15 04:09:48;;;;;;;4.63;3.50;;;21.10;44.80;;;;;;5035247;28;20032;-71
2021/12/15 04:12:14;;;;;;;3.90;3.45;;;21.10;44.70;;;;;;5034240;28;20039;-71
2021/12/15 04:14:54;;;;;;;4.72;3.78;;;21.00;44.70;;;;;;5035403;28;20079;-71
2021/12/15 04:17:30;;;;;;;4.45;3.40;;;21.10;44.80;;;;;;5037808;28;20032;-71
2021/12/15 04:20:02;;;;;;;4.05;3.20;;;21.10;45.70;;;;;;5055316;28;20021;-71
2021/12/15 04:22:28;;;;;;;4.90;3.72;;;21.10;44.80;;;;;;5055188;28;20029;-71
2021/12/15 04:24:55;;;;;;;4.93;3.60;;;21.10;44.80;;;;;;5055120;28;20462;-71
2021/12/15 04:27:21;;;;;;;4.28;3.70;;;21.10;44.80;;;;;;5054858;28;20035;-71
2021/12/15 04:29:48;;;;;;;4.15;3.50;;;21.00;44.70;;;;;;5054004;28;20028;-71
2021/12/15 04:32:22;;;;;;;4.35;3.60;;;21.10;44.80;;;;;;5035383;28;20057;-71
2021/12/15 04:34:48;;;;;;;4.50;3.60;;;21.10;44.90;;;;;;5033861;28;20036;-71
2021/12/15 04:37:13;;;;;;;4.25;3.35;;;21.00;44.80;;;;;;5035261;28;20021;-71
2021/12/15 04:39:39;;;;;;;3.80;3.20;;;21.00;44.70;;;;;;5034978;28;20026;-71
2021/12/15 04:42:06;;;;;;;4.03;3.28;;;21.00;44.70;;;;;;5034782;28;20033;-71
2021/12/15 04:44:33;;;;;;;4.28;3.58;;;21.10;44.80;;;;;;5034800;28;20405;-71
2021/12/15 04:47:09;;;;;;;3.67;3.25;;;21.00;44.70;;;;;;5034841;28;20034;-71
2021/12/15 04:49:44;;;;;;;4.38;3.67;;;21.10;44.80;;;;;;5034487;28;20053;-71
2021/12/15 04:52:13;;;;;;;5.47;3.50;;;21.00;44.70;;;;;;5033595;28;20021;-72
2021/12/15 04:54:40;;;;;;;4.50;3.70;;;21.00;44.70;;;;;;5034767;28;20025;-71
2021/12/15 04:57:06;;;;;;;4.50;3.55;;;21.00;44.80;;;;;;5034568;28;20480;-71
2021/12/15 04:59:32;;;;;;;5.15;3.83;;;21.00;44.80;;;;;;5034712;28;20017;-71
2021/12/15 05:01:59;;;;;;;4.57;3.97;;;21.00;44.80;;;;;;5034319;28;20022;-71
2021/12/15 05:04:25;;;;;;;4.50;3.30;;;21.00;44.70;;;;;;5044091;28;20105;-71
2021/12/15 05:06:51;;;;;;;4.80;3.55;;;21.00;44.80;;;;;;5043200;28;20040;-71
2021/12/15 05:09:17;;;;;;;4.30;3.58;;;21.00;44.80;;;;;;5053870;28;20384;-71
2021/12/15 05:11:45;;;;;;;4.15;3.47;;;21.00;44.80;;;;;;5054237;28;20028;-71
2021/12/15 05:14:10;;;;;;;3.97;3.45;;;21.00;44.80;;;;;;5054358;28;20028;-71
2021/12/15 05:16:36;;;;;;;4.57;3.70;;;21.00;44.80;;;;;;5054405;28;20017;-71
2021/12/15 05:19:02;;;;;;;4.57;3.60;;;21.00;44.70;;;;;;5037281;28;20152;-71
2021/12/15 05:21:30;;;;;;;4.18;3.30;;;21.00;44.80;;;;;;5034147;28;20163;-71
2021/12/15 05:24:00;;;;;;;4.80;3.40;;;21.00;44.80;;;;;;5033891;28;20032;-71
2021/12/15 05:26:25;;;;;;;4.50;3.70;;;21.00;44.90;;;;;;5033734;28;20021;-71
2021/12/15 05:28:51;;;;;;;3.70;3.00;;;21.00;44.80;;;;;;5033747;28;20053;-71
2021/12/15 05:31:17;;;;;;;4.20;3.40;;;21.00;44.90;;;;;;5033392;28;20022;-71
2021/12/15 05:33:43;;;;;;;4.32;3.45;;;21.00;44.90;;;;;;5032572;28;20389;-71
2021/12/15 05:36:08;;;;;;;5.18;3.60;;;21.00;44.90;;;;;;5034069;28;20026;-72
2021/12/15 05:38:34;;;;;;;4.00;3.13;;;21.00;44.90;;;;;;5033888;28;20028;-72
2021/12/15 05:41:00;;;;;;;4.20;3.38;;;21.00;44.90;;;;;;5033885;28;20093;-72
2021/12/15 05:43:26;;;;;;;4.95;3.53;;;21.00;44.90;;;;;;5032585;28;20022;-72
2021/12/15 05:45:52;;;;;;;5.13;3.60;;;21.00;45.00;;;;;;5033743;28;20025;-71
2021/12/15 05:48:19;;;;;;;4.00;3.30;;;21.00;45.00;;;;;;5033877;28;20088;-71
2021/12/15 05:50:46;;;;;;;4.50;3.83;;;21.10;45.00;;;;;;5033607;28;20748;-71
2021/12/15 05:53:12;;;;;;;4.22;3.67;;;21.10;45.00;;;;;;5033398;28;20026;-71
2021/12/15 05:55:39;;;;;;;4.13;3.30;;;21.10;45.00;;;;;;5033552;28;20017;-71
2021/12/15 05:58:05;;;;;;;4.22;3.35;;;21.20;45.00;;;;;;5033357;28;20017;-71
2021/12/15 06:00:35;;;;;;;3.88;3.22;;;21.20;44.90;;;;;;5033507;28;20029;-71
2021/12/15 06:03:01;;;;;;;4.30;3.10;;;21.30;44.90;;;;;;5036450;28;20017;-71
2021/12/15 06:05:27;;;;;;;4.20;3.15;;;21.40;44.80;;;;;;5038717;28;20028;-71
2021/12/15 06:07:52;;;;;;;4.18;3.10;;;21.40;44.70;;;;;;5050919;28;20371;-71
2021/12/15 06:10:22;;;;;;;3.45;3.10;;;21.50;44.70;;;;;;5053883;28;20032;-72
2021/12/15 06:12:49;;;;;;;3.88;3.17;;;21.60;44.70;;;;;;5053684;28;20028;-72
2021/12/15 06:15:21;;;;;;;3.38;2.72;;;21.60;44.60;;;;;;5053543;28;20033;-71
2021/12/15 06:17:50;;;;;;;4.53;3.15;;;21.70;44.50;;;;;;5046630;28;20382;-71
2021/12/15 06:20:15;;;;;;;3.30;2.75;;;21.70;44.40;;;;;;5032777;28;20017;-71
2021/12/15 06:22:44;;;;;;;3.58;2.80;;;21.80;44.30;;;;;;5032114;28;20022;-71
2021/12/15 06:25:10;;;;;;;3.60;3.00;;;21.90;44.40;;;;;;5037142;28;20024;-72
2021/12/15 06:27:36;;;;;;;4.13;3.25;;;21.90;44.20;;;;;;5036784;28;20025;-71
2021/12/15 06:30:04;;;;;;;3.85;3.15;;;21.90;44.10;;;;;;5037118;28;20017;-71
2021/12/15 06:32:29;;;;;;;4.22;3.17;;;22.00;44.10;;;;;;5036844;28;20482;-71
2021/12/15 06:34:55;;;;;;;4.13;3.40;;;22.00;44.00;;;;;;5036774;28;20018;-72
2021/12/15 06:37:21;;;;;;;3.63;3.00;;;22.10;44.00;;;;;;5035319;28;20470;-71
2021/12/15 06:39:46;;;;;;;3.67;2.97;;;22.10;44.00;;;;;;5036787;28;20022;-71
2021/12/15 06:42:12;;;;;;;3.80;2.70;;;22.10;43.90;;;;;;5036817;28;20033;-71
2021/12/15 06:44:39;;;;;;;3.67;2.92;;;22.20;43.80;;;;;;5036570;28;20029;-71
2021/12/15 07:00:46;;;;;;;3.63;2.65;;;22.40;43.70;;;;;;5036326;28;20039;-71
2021/12/15 07:03:12;;;;;;;2.78;2.47;;;22.40;43.60;;;;;;5039115;28;20102;-71
2021/12/15 07:05:38;;;;;;;4.10;2.95;;;22.40;43.60;;;;;;5039685;28;20392;-71
2021/12/15 07:08:06;;;;;;;3.90;3.03;;;22.40;43.60;;;;;;5035826;28;20030;-71
2021/12/15 07:10:34;;;;;;;3.97;3.13;;;22.50;43.50;;;;;;5035814;28;20037;-71
2021/12/15 07:13:00;;;;;;;4.05;3.05;;;22.50;43.50;;;;;;5035741;28;20389;-71
2021/12/15 07:15:27;;;;;;;3.53;2.83;;;22.50;43.40;;;;;;5035766;28;20017;-72
2021/12/15 07:18:00;;;;;;;3.97;3.10;;;22.60;43.50;;;;;;5042657;28;20025;-72
2021/12/15 07:23:06;;;;;;;3.40;2.60;;;22.60;43.40;;;;;;5055946;28;20036;-72
2021/12/15 07:25:35;;;;;;;3.70;2.90;;;22.70;43.40;;;;;;5055568;28;20025;-72
2021/12/15 07:28:00;;;;;;;2.83;2.58;;;22.70;43.30;;;;;;5055430;28;20037;-72
2021/12/15 07:30:26;;;;;;;3.90;2.78;;;22.70;43.30;;;;;;5050259;28;20025;-72
2021/12/15 07:32:52;;;;;;;3.85;3.05;;;22.80;43.30;;;;;;5035422;28;20021;-72
2021/12/15 07:35:20;;;;;;;3.35;2.75;;;22.80;43.30;;;;;;5034926;28;20362;-72
2021/12/15 07:37:46;;;;;;;3.55;3.00;;;22.80;43.20;;;;;;5035513;28;20100;-72
2021/12/15 07:40:19;;;;;;;3.17;2.65;;;22.80;43.20;;;;;;5035314;28;20049;-71
2021/12/15 07:42:58;;;;;;;3.05;2.60;;;22.80;43.20;;;;;;5035373;28;20060;-71
2021/12/15 07:45:27;;;;;;;3.08;2.67;;;22.90;43.30;;;;;;5035242;28;20584;-71
2021/12/15 07:47:56;;;;;;;4.35;3.08;;;22.90;43.20;;;;;;5035225;28;20449;-72
2021/12/15 07:50:23;;;;;;;4.20;2.83;;;22.90;43.20;;;;;;5035113;28;20028;-71
2021/12/15 07:52:50;;;;;;;3.80;2.90;;;22.90;43.10;;;;;;5033902;28;20040;-71
2021/12/15 07:55:17;;;;;;;4.13;3.00;;;22.90;43.10;;;;;;5035033;28;20095;-71
2021/12/15 07:57:45;;;;;;;4.18;3.00;;;22.90;43.10;;;;;;5048295;28;20021;-72
2021/12/15 08:00:13;;;;;;;8.90;6.07;;;23.00;43.10;;;;;;5054803;28;20159;-72
2021/12/15 08:02:39;;;;;;;15.30;9.50;;;22.90;42.70;;;;;;5054721;28;20067;-72
2021/12/15 08:05:06;;;;;;;18.08;8.93;;;22.90;42.40;;;;;;5044479;28;20079;-72
2021/12/15 08:07:31;;;;;;;11.23;7.07;;;22.90;42.40;;;;;;5048895;28;20040;-72
2021/12/15 08:09:57;;;;;;;11.63;6.93;;;22.80;42.60;;;;;;5055033;28;20029;-72
2021/12/15 08:12:22;;;;;;;9.15;6.05;;;22.80;42.60;;;;;;5034702;28;20092;-72
2021/12/15 08:14:48;;;;;;;9.30;6.20;;;22.80;42.60;;;;;;5034261;28;20022;-72
2021/12/15 08:17:15;;;;;;;11.43;6.40;;;22.80;42.60;;;;;;5050264;28;20024;-72
2021/12/15 08:19:40;;;;;;;9.80;6.50;;;22.80;42.60;;;;;;5055276;28;20112;-72
2021/12/15 08:22:06;;;;;;;9.95;6.57;;;22.80;42.50;;;;;;5053353;28;20068;-72
2021/12/15 08:24:32;;;;;;;11.70;7.57;;;22.80;42.50;;;;;;5054982;28;20025;-71
2021/12/15 08:26:58;;;;;;;10.82;6.85;;;22.80;42.40;;;;;;5054532;28;20032;-71
2021/12/15 08:29:23;;;;;;;10.45;6.63;;;22.80;42.40;;;;;;5053979;28;20053;-71
2021/12/15 08:31:49;;;;;;;9.57;6.25;;;22.80;42.30;;;;;;5037544;28;20032;-71
2021/12/15 08:34:14;;;;;;;10.55;6.55;;;22.80;42.30;;;;;;5034124;28;20025;-71
2021/12/15 08:36:40;;;;;;;12.20;6.40;;;22.80;42.30;;;;;;5034339;28;20053;-71
2021/12/15 08:39:08;;;;;;;10.63;6.70;;;22.80;42.30;;;;;;5034178;28;20028;-71
2021/12/15 08:41:35;;;;;;;11.90;6.80;;;22.80;42.20;;;;;;5032888;28;20059;-70
2021/12/15 08:44:06;;;;;;;9.88;6.55;;;22.80;42.20;;;;;;5032839;28;20036;-71
2021/12/15 08:46:39;;;;;;;10.45;6.80;;;22.80;42.20;;;;;;5052378;28;20028;-71
2021/12/15 08:49:07;;;;;;;10.63;6.53;;;22.80;42.20;;;;;;5051736;28;20044;-71
2021/12/15 08:51:34;;;;;;;13.30;7.20;;;22.80;42.30;;;;;;5046673;28;20176;-71
2021/12/15 08:54:03;;;;;;;12.07;6.85;;;22.80;42.20;;;;;;5044372;28;20021;-71
2021/12/15 08:56:30;;;;;;;9.63;6.47;;;22.80;42.20;;;;;;5057467;28;20017;-71
2021/12/15 08:58:56;;;;;;;12.65;7.43;;;22.80;42.20;;;;;;5056705;28;20416;-71
2021/12/15 09:01:23;;;;;;;11.68;7.07;;;22.80;42.20;;;;;;5049789;28;20066;-71
2021/12/15 09:03:49;;;;;;;11.38;7.07;;;22.80;42.20;;;;;;5062760;28;20025;-71
2021/12/15 09:06:15;;;;;;;12.07;7.68;;;22.90;42.30;;;;;;5049195;28;20069;-71
2021/12/15 09:08:42;;;;;;;10.63;6.80;;;22.80;42.30;;;;;;5060030;28;20031;-71
2021/12/15 09:11:10;;;;;;;11.68;6.90;;;22.90;42.50;;;;;;5066045;28;20756;-71
2021/12/15 09:13:37;;;;;;;11.98;7.60;;;22.80;42.30;;;;;;5063333;28;20025;-71
2021/12/15 09:16:07;;;;;;;11.52;7.03;;;22.90;42.40;;;;;;5054137;28;20035;-71
2021/12/15 09:18:33;;;;;;;11.55;7.38;;;22.90;42.40;;;;;;5060691;28;20024;-71
2021/12/15 09:21:00;;;;;;;11.45;7.38;;;22.90;42.50;;;;;;5054817;28;20032;-71
2021/12/15 09:23:27;;;;;;;11.05;7.07;;;22.90;42.50;;;;;;5061038;28;20032;-71
2021/12/15 09:25:52;;;;;;;11.45;7.13;;;22.90;42.40;;;;;;5046027;28;20013;-71
2021/12/15 09:28:19;;;;;;;11.52;7.32;;;22.90;42.40;;;;;;5057100;28;20049;-71
2021/12/15 09:30:46;;;;;;;11.52;7.60;;;22.90;42.50;;;;;;5049964;28;20074;-71
2021/12/15 09:33:20;;;;;;;11.40;7.25;;;22.90;42.40;;;;;;5061076;28;20031;-71
2021/12/15 09:35:47;;;;;;;21.27;11.25;;;22.90;42.60;;;;;;5058630;28;20064;-70
2021/12/15 09:38:16;;;;;;;13.65;8.07;;;22.90;42.50;;;;;;5056590;28;20104;-70
2021/12/15 09:40:42;;;;;;;15.95;7.97;;;22.90;42.50;;;;;;5052081;28;20017;-71
2021/12/15 09:43:09;;;;;;;13.23;7.93;;;22.90;42.60;;;;;;5054202;28;20489;-71
2021/12/15 09:45:48;;;;;;;12.95;7.57;;;22.90;42.60;;;;;;5054482;28;20025;-71
2021/12/15 10:04:39;;;;;;;10.88;7.45;;;23.00;42.70;;;;;;5054197;28;20029;-71
2021/12/15 10:10:39;;;;;;;10.43;6.88;;;23.00;42.70;;;;;;5051359;28;20033;-71
2021/12/15 10:18:43;;;;;;;12.77;7.15;;;23.00;42.90;;;;;;5066769;28;20023;-71
2021/12/15 10:21:20;;;;;;;11.20;7.18;;;23.00;42.90;;;;;;5054709;28;20021;-70
2021/12/15 10:23:48;;;;;;;11.55;7.78;;;23.00;42.90;;;;;;5060468;28;20016;-71
2021/12/15 10:26:14;;;;;;;11.98;8.00;;;23.00;43.00;;;;;;5055657;28;20021;-71
2021/12/15 10:28:42;;;;;;;11.70;7.38;;;23.00;43.00;;;;;;5062626;28;20093;-71
2021/12/15 10:31:12;;;;;;;12.40;7.75;;;23.10;43.00;;;;;;5049008;28;20082;-72
2021/12/15 10:33:43;;;;;;;13.18;7.53;;;23.10;43.00;;;;;;5049890;28;20044;-71
2021/12/15 10:36:12;;;;;;;12.55;8.57;;;23.00;42.90;;;;;;5059815;28;20485;-71
2021/12/15 10:38:44;;;;;;;12.73;7.93;;;23.10;43.00;;;;;;5048659;28;20044;-71
2021/12/15 10:41:18;;;;;;;;;;;23.10;43.00;;;;;;5060028;28;20025;-70
2021/12/15 10:43:57;;;;;;;11.35;7.55;;;23.10;43.00;;;;;;5055944;28;19911;-71
2021/12/15 10:46:50;;;;;;;11.98;7.72;;;23.00;44.10;;;;;;5058997;28;20107;-71
2021/12/15 10:49:17;;;;;;;13.75;7.43;;;23.00;43.00;;;;;;5048634;28;20041;-71
2021/12/15 10:51:47;;;;;;;12.30;7.53;;;23.00;43.20;;;;;;5063224;28;20017;-71
2021/12/15 10:54:21;;;;;;;13.20;7.90;;;23.00;43.20;;;;;;5041025;28;20034;-72
2021/12/15 10:56:53;;;;;;;12.35;7.82;;;23.10;43.20;;;;;;5035586;28;20358;-72
2021/12/15 10:59:20;;;;;;;12.25;7.80;;;23.10;43.10;;;;;;5049703;28;20021;-72
2021/12/15 11:01:57;;;;;;;12.05;7.35;;;23.10;43.20;;;;;;5045873;28;20140;-71
2021/12/15 11:04:33;;;;;;;11.27;7.47;;;23.10;43.10;;;;;;5060030;28;20017;-71
2021/12/15 11:07:07;;;;;;;12.20;7.50;;;23.10;43.20;;;;;;5054412;28;20068;-72
2021/12/15 11:09:39;;;;;;;15.23;7.25;;;23.10;43.10;;;;;;5069776;28;20027;-72
2021/12/15 11:12:16;;;;;;;12.27;6.65;;;23.10;43.20;;;;;;5059532;28;20020;-71
2021/12/15 11:14:44;;;;;;;12.57;8.35;;;23.10;43.30;;;;;;5064717;28;20020;-71
2021/12/15 11:17:14;;;;;;;15.55;7.65;;;23.10;43.40;;;;;;5068011;28;20043;-72
2021/12/15 11:19:55;;;;;;;12.18;7.53;;;23.10;43.50;;;;;;5067295;28;20028;-71
2021/12/15 11:22:38;;;;;;;11.55;7.25;;;23.20;43.70;;;;;;5061764;28;20032;-71
2021/12/15 11:25:11;;;;;;;12.13;7.57;;;23.20;43.60;;;;;;5062185;28;20070;-71
2021/12/15 11:27:37;;;;;;;10.45;7.65;;;23.10;43.70;;;;;;5066330;28;20139;-71
2021/12/15 11:30:10;;;;;;;13.30;7.93;;;23.20;43.70;;;;;;5064205;28;20051;-71
2021/12/15 11:32:46;;;;;;;11.18;7.90;;;23.20;43.70;;;;;;5064465;28;20029;-71
2021/12/15 11:35:24;;;;;;;13.60;8.10;;;23.20;43.70;;;;;;5061797;28;20066;-71
2021/12/15 11:37:52;;;;;;;13.73;7.95;;;23.20;43.80;;;;;;5061326;28;20070;-72
2021/12/15 11:40:27;;;;;;;11.45;8.02;;;23.20;43.90;;;;;;5061587;28;20107;-72
2021/12/15 11:42:53;;;;;;;10.52;7.63;;;23.20;43.80;;;;;;5070404;28;20032;-72
2021/12/15 11:45:19;;;;;;;11.93;8.07;;;23.20;43.80;;;;;;5065922;28;20393;-72
2021/12/15 11:47:45;;;;;;;11.98;7.95;;;23.10;43.70;;;;;;5072293;28;20079;-72
2021/12/15 11:50:18;;;;;;;12.93;8.00;;;23.20;43.80;;;;;;5059669;28;20431;-72
2021/12/15 11:52:48;;;;;;;9.50;7.40;;;23.20;43.90;;;;;;5059123;28;20075;-71
2021/12/15 11:55:33;;;;;;;12.35;8.43;;;23.20;43.80;;;;;;5061132;28;20362;-72
2021/12/15 11:57:59;;;;;;;11.65;8.43;;;23.20;43.80;;;;;;5061471;28;20048;-71
2021/12/15 12:00:27;;;;;;;11.68;8.10;;;23.10;43.80;;;;;;5052838;28;20715;-71
2021/12/15 12:02:57;;;;;;;10.93;7.78;;;23.20;43.90;;;;;;5046210;28;20389;-71
2021/12/15 12:05:36;;;;;;;12.43;7.88;;;23.20;43.90;;;;;;5054999;28;20020;-71
2021/12/15 12:08:09;;;;;;;13.88;9.75;;;23.20;43.90;;;;;;5050711;28;20028;-71
2021/12/15 12:10:45;;;;;;;12.10;8.65;;;23.10;43.80;;;;;;5056843;28;20489;-71
2021/12/15 12:13:19;;;;;;;11.20;8.18;;;23.10;43.80;;;;;;5064336;28;20025;-71
2021/12/15 12:15:47;;;;;;;12.60;8.70;;;23.10;43.90;;;;;;5060935;28;20027;-71
2021/12/15 12:18:19;;;;;;;12.82;8.70;;;23.10;44.00;;;;;;5063104;28;20017;-71
2021/12/15 12:20:51;;;;;;;16.13;8.90;;;23.10;43.90;;;;;;5065994;28;20016;-71
2021/12/15 12:23:20;;;;;;;12.77;8.93;;;23.10;43.90;;;;;;5055457;28;20036;-71
2021/12/15 12:25:48;;;;;;;13.30;8.40;;;23.10;44.00;;;;;;5060761;28;20025;-71
2021/12/15 12:28:28;;;;;;;12.20;8.75;;;23.10;44.00;;;;;;5055348;28;20052;-71
2021/12/15 12:31:07;;;;;;;10.80;8.25;;;23.10;44.00;;;;;;5050043;28;20112;-71
2021/12/15 12:33:33;;;;;;;12.05;8.30;;;23.10;44.00;;;;;;5057920;28;20017;-71
2021/12/15 12:36:10;;;;;;;10.90;8.43;;;23.10;44.00;;;;;;5064552;28;20350;-71
2021/12/15 12:38:39;;;;;;;11.88;8.63;;;23.20;44.10;;;;;;5062340;28;20096;-71
2021/12/15 12:41:14;;;;;;;13.27;8.45;;;23.10;44.00;;;;;;5067912;28;20017;-71
2021/12/15 12:43:46;;;;;;;10.93;7.85;;;23.20;44.10;;;;;;5062600;28;20023;-71
2021/12/15 12:46:33;;;;;;;10.68;7.93;;;23.20;44.10;;;;;;5056373;28;20100;-71
2021/12/15 13:00:18;;;;;;;11.30;8.35;;;23.10;44.20;;;;;;5054289;28;20043;-71
2021/12/15 13:02:48;;;;;;;11.52;8.18;;;23.10;44.30;;;;;;5059479;28;20031;-72
2021/12/15 13:05:35;;;;;;;11.98;9.02;;;23.10;44.30;;;;;;5055781;28;20016;-71
2021/12/15 13:08:04;;;;;;;13.60;9.18;;;23.10;44.30;;;;;;5053581;28;20029;-71
2021/12/15 13:10:50;;;;;;;9.77;7.90;;;23.10;44.40;;;;;;5060615;28;20096;-71
2021/12/15 13:13:20;;;;;;;11.02;8.23;;;23.10;44.20;;;;;;5053676;28;20107;-71
2021/12/15 13:16:01;;;;;;;11.13;8.38;;;23.10;44.40;;;;;;5064786;28;20040;-71
2021/12/15 13:18:40;;;;;;;12.75;8.27;;;23.20;44.40;;;;;;5050446;28;20032;-71
2021/12/15 13:21:07;;;;;;;10.75;8.00;;;23.10;44.40;;;;;;5066365;28;20060;-71
2021/12/15 13:23:48;;;;;;;9.57;8.18;;;23.10;44.40;;;;;;5053490;28;20018;-71
2021/12/15 13:29:50;;;;;;;10.20;8.20;;;23.20;44.40;;;;;;5055357;28;20550;-71
2021/12/15 13:32:16;;;;;;;10.00;7.72;;;23.10;44.40;;;;;;5040628;28;20039;-71
2021/12/15 13:34:48;;;;;;;10.57;8.00;;;23.10;44.50;;;;;;5051027;28;20028;-71
2021/12/15 13:37:53;;;;;;;10.50;8.32;;;23.10;44.40;;;;;;5067311;28;20048;-71
2021/12/15 13:40:59;;;;;;;10.27;7.60;;;23.10;44.40;;;;;;5043300;28;20009;-71
2021/12/15 13:43:36;;;;;;;10.13;8.02;;;23.10;44.40;;;;;;5039452;28;20041;-71
2021/12/15 13:46:04;;;;;;;10.07;7.80;;;23.10;44.40;;;;;;5067892;28;20017;-71
2021/12/15 13:49:00;;;;;;;10.27;7.78;;;23.10;44.50;;;;;;5058912;28;20476;-71
2021/12/15 13:52:03;;;;;;;11.48;8.43;;;23.10;44.30;;;;;;5052075;28;20406;-71
2021/12/15 13:54:37;;;;;;;12.68;9.30;;;23.10;44.30;;;;;;5050898;28;20053;-71
2021/12/15 13:57:11;;;;;;;9.43;7.60;;;23.10;44.40;;;;;;5055476;28;20017;-71
2021/12/15 13:59:38;;;;;;;9.95;8.27;;;23.10;44.30;;;;;;5056349;28;20075;-71
2021/12/15 14:02:17;;;;;;;10.13;8.20;;;23.10;44.30;;;;;;5056762;28;20477;-71
2021/12/15 14:04:47;;;;;;;9.13;7.57;;;23.10;44.40;;;;;;5054734;28;20032;-71
2021/12/15 14:07:28;;;;;;;11.00;8.02;;;23.10;44.30;;;;;;5053607;28;20021;-71
2021/12/15 14:10:17;;;;;;;9.93;7.82;;;23.10;44.20;;;;;;5063161;28;20500;-71
2021/12/15 14:12:46;;;;;;;8.40;7.20;;;23.10;44.30;;;;;;5062472;28;20043;-71
2021/12/15 14:15:36;;;;;;;10.27;7.80;;;23.10;44.30;;;;;;5054357;28;20021;-71
2021/12/15 14:18:22;;;;;;;9.50;7.30;;;23.10;44.20;;;;;;5063724;28;20374;-71
2021/12/15 14:20:48;;;;;;;9.05;7.15;;;23.10;44.20;;;;;;5053344;28;20029;-71